Data for 12/01/2008

Time Sea-Level Adjusted Pressure Absolute Pressure Temperature Relative Humidity Dew Point   
(mb) (inHg) (mb) (inHg) (C) (F) (%) (C) (F)
00:05 1022 30.18 851 25.13 3.9 39 71 -0.8 30.5
00:10 1022 30.18 851 25.13 3.1 37.5 75 -1 30.2
00:15 1022 30.18 851 25.13 2.5 36.5 77 -1.1 30
00:20 1022 30.18 851 25.13 2.1 35.8 78 -1.3 29.6
00:25 1022 30.18 851 25.13 2.1 35.9 79 -1.2 29.8
00:30 1022 30.18 851 25.13 2.3 36.1 78 -1.2 29.8
00:35 1022 30.18 851 25.13 2.3 36.2 77 -1.3 29.7
00:40 1022 30.18 851 25.13 2.5 36.4 77 -1.2 29.8
00:45 1022 30.18 851 25.13 2.3 36.2 77 -1.3 29.7
00:50 1022 30.18 851 25.13 2.3 36.1 78 -1.2 29.8
00:55 1022 30.18 851 25.13 2.3 36.1 78 -1.1 30
01:00 1022 30.18 851 25.13 2.3 36.1 77 -1.4 29.6
01:05 1022 30.18 851 25.13 2.3 36.2 77 -1.3 29.6
01:10 1022 30.18 851 25.13 2.1 35.7 78 -1.5 29.4
01:15 1021 30.15 851 25.13 2 35.6 78 -1.5 29.3
01:20 1021 30.15 851 25.13 2 35.6 78 -1.5 29.4
01:25 1021 30.15 850 25.1 2.2 35.9 77 -1.5 29.3
01:30 1021 30.15 850 25.1 2.2 35.9 77 -1.4 29.4
01:35 1021 30.15 850 25.1 2.1 35.7 77 -1.5 29.4
01:40 1021 30.15 850 25.1 2.3 36.1 77 -1.4 29.4
01:45 1021 30.15 850 25.1 2.4 36.3 76 -1.4 29.4
01:50 1021 30.15 850 25.1 2.2 36 77 -1.5 29.4
01:55 1021 30.15 850 25.1 2.2 35.9 78 -1.4 29.5
02:00 1021 30.15 850 25.1 2.3 36.1 79 -1 30.2
02:05 1021 30.15 850 25.1 2.3 36.1 77 -1.4 29.5
02:10 1021 30.15 850 25.1 2.3 36.1 76 -1.4 29.4
02:15 1021 30.15 850 25.1 2.3 36.2 77 -1.3 29.6
02:20 1021 30.15 850 25.1 2.3 36.1 76 -1.5 29.3
02:25 1021 30.15 850 25.1 2.1 35.8 77 -1.6 29.1
02:30 1021 30.15 850 25.1 2 35.7 77 -1.6 29.1
02:35 1021 30.15 850 25.1 2 35.6 77 -1.6 29.1
02:40 1021 30.15 850 25.1 2.1 35.7 77 -1.5 29.3
02:45 1021 30.15 850 25.1 2.2 35.9 78 -1.3 29.7
02:50 1021 30.15 850 25.1 1.8 35.2 79 -1.5 29.2
02:55 1021 30.15 850 25.1 1.5 34.7 80 -1.6 29.1
03:00 1020 30.12 850 25.1 1.4 34.5 80 -1.7 28.9
03:05 1020 30.12 850 25.1 1.4 34.4 80 -1.7 28.9
03:10 1020 30.12 850 25.1 1.3 34.4 80 -1.7 28.9
03:15 1020 30.12 850 25.1 1.6 34.8 78 -1.9 28.6
03:20 1020 30.12 849 25.07 1.8 35.3 78 -1.6 29.2
03:25 1020 30.12 849 25.07 1.6 34.9 78 -1.8 28.8
03:30 1020 30.12 849 25.07 1.9 35.4 76 -1.8 28.7
03:35 1020 30.12 849 25.07 2.2 35.9 75 -1.7 28.9
03:40 1020 30.12 849 25.07 2.2 35.9 76 -1.6 29
03:45 1020 30.12 849 25.07 2.1 35.7 76 -1.7 28.9
03:50 1020 30.12 849 25.07 2 35.6 76 -1.7 28.9
03:55 1020 30.12 849 25.07 2 35.6 76 -1.8 28.8
04:00 1020 30.12 849 25.07 1.9 35.4 77 -1.6 29
04:05 1019 30.09 849 25.07 1.5 34.7 79 -1.8 28.8
04:10 1019 30.09 849 25.07 1.4 34.6 78 -2 28.5
04:15 1019 30.09 849 25.07 1.6 34.9 78 -1.8 28.8
04:20 1019 30.09 848 25.04 1.6 34.8 78 -1.8 28.7
04:25 1019 30.09 848 25.04 1.6 35 78 -1.8 28.7
04:30 1019 30.09 848 25.04 1.5 34.7 79 -1.8 28.8
04:35 1019 30.09 848 25.04 1.7 35 78 -1.8 28.8
04:40 1019 30.09 848 25.04 1.8 35.3 77 -1.7 28.9
04:45 1019 30.09 848 25.04 1.8 35.2 78 -1.7 28.9
04:50 1019 30.09 848 25.04 1.8 35.3 78 -1.6 29.1
04:55 1019 30.09 848 25.04 1.8 35.3 79 -1.4 29.4
05:00 1019 30.09 848 25.04 2.4 36.3 75 -1.6 29.2
05:05 1019 30.09 848 25.04 2.8 37 74 -1.3 29.6
05:10 1019 30.09 848 25.04 2.6 36.6 76 -1.3 29.7
05:15 1019 30.09 848 25.04 1.8 35.3 79 -1.4 29.5
05:20 1019 30.09 848 25.04 1.4 34.5 80 -1.7 28.9
05:25 1019 30.09 848 25.04 1.5 34.7 79 -1.7 29
05:30 1019 30.09 848 25.04 1.6 34.8 79 -1.6 29
05:35 1019 30.09 848 25.04 1.4 34.6 79 -1.7 28.9
05:40 1019 30.09 848 25.04 2 35.7 76 -1.7 28.9
05:45 1019 30.09 848 25.04 2.6 36.8 73 -1.6 29.1
05:50 1019 30.09 848 25.04 2.9 37.1 74 -1.4 29.5
05:55 1019 30.09 848 25.04 2.7 36.9 74 -1.5 29.4
06:00 1019 30.09 848 25.04 2.6 36.7 74 -1.5 29.4
06:05 1019 30.09 848 25.04 2.5 36.5 74 -1.7 29
06:10 1019 30.09 848 25.04 2.6 36.8 75 -1.3 29.6
06:15 1019 30.09 848 25.04 2 35.7 78 -1.4 29.5
06:20 1019 30.09 848 25.04 1.8 35.2 79 -1.5 29.2
06:25 1019 30.09 848 25.04 2 35.5 77 -1.6 29.2
06:30 1018 30.06 848 25.04 2.1 35.8 76 -1.6 29.1
06:35 1018 30.06 848 25.04 1.9 35.3 79 -1.4 29.5
06:40 1018 30.06 848 25.04 1.4 34.5 81 -1.5 29.3
06:45 1018 30.06 847 25.01 1.3 34.3 80 -1.7 28.9
06:50 1018 30.06 847 25.01 1.7 35.1 77 -1.8 28.7
06:55 1018 30.06 847 25.01 2.1 35.8 77 -1.5 29.3
07:00 1018 30.06 847 25.01 2.1 35.7 76 -1.6 29
07:05 1018 30.06 847 25.01 1.9 35.4 78 -1.5 29.3
07:10 1018 30.06 847 25.01 1.7 35 78 -1.8 28.8
07:15 1018 30.06 847 25.01 1.7 35.1 78 -1.7 29
07:20 1018 30.06 847 25.01 1.9 35.3 76 -1.8 28.7
07:25 1018 30.06 847 25.01 1.9 35.4 77 -1.7 29
07:30 1018 30.06 847 25.01 1.8 35.2 78 -1.6 29.1
07:35 1018 30.06 847 25.01 1.8 35.3 77 -1.8 28.8
07:40 1018 30.06 847 25.01 2 35.5 77 -1.7 28.9
07:45 1018 30.06 847 25.01 2.1 35.7 77 -1.6 29.1
07:50 1017 30.03 847 25.01 1.7 35 80 -1.4 29.4
07:55 1017 30.03 847 25.01 1.4 34.4 79 -1.8 28.7
08:00 1017 30.03 847 25.01 1.7 35 78 -1.8 28.8
08:05 1017 30.03 847 25.01 1.8 35.3 78 -1.6 29.1
08:10 1017 30.03 847 25.01 1.6 35 79 -1.6 29.1
08:15 1017 30.03 847 25.01 1.4 34.4 80 -1.6 29
08:20 1017 30.03 847 25.01 1.2 34.1 82 -1.5 29.3
08:25 1017 30.03 847 25.01 0.8 33.4 84 -1.7 29
08:30 1017 30.03 847 25.01 1.1 34 81 -1.7 28.9
08:35 1017 30.03 847 25.01 1.3 34.4 81 -1.6 29.1
08:40 1017 30.03 846 24.98 1.3 34.3 80 -1.7 28.9
08:45 1017 30.03 846 24.98 1.6 34.9 79 -1.7 28.9
08:50 1017 30.03 846 24.98 1.9 35.4 78 -1.6 29.2
08:55 1017 30.03 846 24.98 2 35.6 77 -1.6 29.2
09:00 1017 30.03 846 24.98 1.9 35.5 79 -1.4 29.6
09:05 1017 30.03 846 24.98 1.8 35.3 78 -1.6 29.2
09:10 1017 30.03 846 24.98 2 35.6 79 -1.3 29.7
09:15 1017 30.03 846 24.98 2.3 36.1 76 -1.6 29.1
09:20 1017 30.03 846 24.98 2.5 36.6 76 -1.3 29.7
09:25 1016 30 846 24.98 2.6 36.7 74 -1.5 29.2
09:30 1016 30 846 24.98 2.8 37.1 73 -1.6 29.1
09:35 1016 30 846 24.98 3.1 37.6 70 -1.9 28.6
09:40 1016 30 845 24.95 3.6 38.4 69 -1.6 29.1
09:45 1016 30 845 24.95 3.6 38.6 70 -1.2 29.8
09:50 1016 30 845 24.95 3.6 38.6 69 -1.5 29.4
09:55 1016 30 845 24.95 3.9 39 69 -1.3 29.7
10:00 1016 30 845 24.95 4.3 39.7 67 -1.3 29.7
10:05 1016 30 845 24.95 4.5 40 66 -1.3 29.6
10:10 1016 30 845 24.95 4.7 40.5 65 -1.3 29.6
10:15 1016 30 845 24.95 5 41 63 -1.4 29.5
10:20 1016 30 845 24.95 5.2 41.4 62 -1.4 29.4
10:25 1016 30 845 24.95 5.4 41.7 63 -1.1 30
10:30 1016 30 845 24.95 5.6 42.1 61 -1.2 29.8
10:35 1016 30 845 24.95 5.7 42.2 62 -1 30.1
10:40 1016 30 845 24.95 5.8 42.5 62 -0.9 30.3
10:45 1016 30 845 24.95 6.1 43 61 -0.9 30.4
10:50 1016 30 845 24.95 6.2 43.2 61 -0.8 30.6
10:55 1016 30 845 24.95 6.5 43.8 58 -1.1 30
11:00 1016 30 845 24.95 6.8 44.3 59 -0.5 31
11:05 1016 30 845 24.95 7.4 45.3 55 -1.1 30
11:10 1016 30 845 24.95 7.6 45.6 55 -0.8 30.6
11:15 1016 30 845 24.95 7.8 46.1 53 -1.1 30.1
11:20 1016 30 845 24.95 8.2 46.8 52 -1.1 30.1
11:25 1016 30 845 24.95 7.9 46.3 56 -0.3 31.5
11:30 1015 29.97 845 24.95 8.2 46.7 55 -0.3 31.4
11:35 1015 29.97 845 24.95 9 48.1 51 -0.5 31.1
11:40 1015 29.97 844 24.92 9.7 49.4 49 -0.5 31.2
11:45 1015 29.97 844 24.92 9.8 49.7 49 -0.2 31.6
11:50 1015 29.97 844 24.92 9 48.2 53 0.1 32.1
11:55 1015 29.97 844 24.92 9.2 48.5 51 -0.4 31.3
12:00 1015 29.97 844 24.92 9.7 49.4 50 -0.3 31.4
12:05 1015 29.97 844 24.92 10.3 50.5 50 0.3 32.6
12:10 1015 29.97 844 24.92 10.8 51.4 48 0.1 32.2
12:15 1015 29.97 844 24.92 10.3 50.5 49 0 32
12:20 1014 29.94 844 24.92 10.3 50.5 50 0.3 32.5
12:25 1014 29.94 844 24.92 10 49.9 52 0.7 33.3
12:30 1014 29.94 843 24.89 9.8 49.7 52 0.4 32.8
12:35 1014 29.94 843 24.89 10.6 51.1 51 0.9 33.7
12:40 1014 29.94 843 24.89 9.9 49.8 53 0.7 33.3
12:45 1014 29.94 843 24.89 10.4 50.7 51 0.7 33.3
12:50 1014 29.94 843 24.89 11 51.7 49 0.6 33.2
12:55 1014 29.94 843 24.89 11.6 53 48 1.1 33.9
13:00 1014 29.94 843 24.89 11.5 52.6 48 1 33.7
13:05 1014 29.94 843 24.89 11.7 53 47 0.8 33.4
13:10 1014 29.94 843 24.89 12.2 53.9 45 0.8 33.4
13:15 1014 29.94 843 24.89 13.1 55.5 42 0.6 33
13:20 1014 29.94 843 24.89 13.5 56.2 41 0.6 33
13:25 1013 29.91 843 24.89 13.3 56 41 0.3 32.5
13:30 1013 29.91 843 24.89 13.3 55.9 39 -0.4 31.3
13:35 1013 29.91 842 24.86 13.6 56.4 38 -0.5 31.1
13:40 1013 29.91 842 24.86 13.3 56 39 -0.4 31.3
13:45 1013 29.91 842 24.86 13.2 55.7 40 -0.1 31.7
13:50 1013 29.91 842 24.86 12.6 54.7 39 -0.8 30.5
13:55 1013 29.91 842 24.86 13.2 55.7 39 -0.3 31.5
14:00 1013 29.91 842 24.86 12.6 54.7 42 0.1 32.2
14:05 1013 29.91 842 24.86 12.3 54.2 42 -0.2 31.7
14:10 1013 29.91 842 24.86 12.2 53.9 43 -0 31.9
14:15 1013 29.91 842 24.86 12.2 54 45 0.6 33
14:20 1013 29.91 842 24.86 12.1 53.7 45 0.5 32.9
14:25 1013 29.91 842 24.86 12 53.6 45 0.4 32.7
14:30 1013 29.91 842 24.86 12 53.5 46 0.9 33.6
14:35 1013 29.91 842 24.86 11.8 53.2 46 0.6 33
14:40 1013 29.91 842 24.86 11.9 53.4 45 0.3 32.5
14:45 1013 29.91 842 24.86 12.1 53.8 44 0.2 32.4
14:50 1012 29.88 842 24.86 12 53.5 43 -0 31.9
14:55 1012 29.88 842 24.86 12.2 53.9 43 -0.1 31.9
15:00 1012 29.88 842 24.86 12.3 54.1 42 -0.1 31.9
15:05 1012 29.88 842 24.86 12 53.5 44 0.3 32.5
15:10 1012 29.88 842 24.86 11.8 53.2 44 -0 31.9
15:15 1012 29.88 842 24.86 11.5 52.6 46 0.2 32.4
15:20 1012 29.88 842 24.86 11.3 52.4 45 -0.1 31.9
15:25 1012 29.88 842 24.86 11.3 52.3 45 -0.3 31.5
15:30 1013 29.91 842 24.86 11.2 52.1 43 -0.9 30.4
15:35 1013 29.91 842 24.86 11.5 52.7 40 -1.7 29
15:40 1013 29.91 842 24.86 11.8 53.2 40 -1.2 29.9
15:45 1013 29.91 842 24.86 11.8 53.3 38 -1.9 28.5
15:50 1013 29.91 842 24.86 12 53.6 37 -2.2 28.1
15:55 1013 29.91 842 24.86 12 53.6 38 -1.8 28.7
16:00 1013 29.91 842 24.86 11.8 53.3 37 -2.4 27.6
16:05 1013 29.91 842 24.86 11.8 53.2 37 -2.3 27.9
16:10 1013 29.91 842 24.86 11.9 53.5 32 -4 24.8
16:15 1013 29.91 842 24.86 11.8 53.2 34 -3.3 26
16:20 1013 29.91 842 24.86 11.7 53 32 -4.4 24
16:25 1013 29.91 842 24.86 11.6 52.9 31 -5 23
16:30 1013 29.91 842 24.86 11.6 52.9 30 -5.4 22.2
16:35 1013 29.91 842 24.86 12 53.5 28 -5.7 21.7
16:40 1013 29.91 842 24.86 12.2 54 28 -5.8 21.5
16:45 1013 29.91 842 24.86 12.1 53.9 27 -6 21.1
16:50 1013 29.91 842 24.86 12.2 54 25 -7.1 19.2
16:55 1013 29.91 842 24.86 12.7 54.8 26 -6.1 21
17:00 1013 29.91 842 24.86 12.6 54.6 26 -6.4 20.5
17:05 1013 29.91 842 24.86 12.6 54.6 26 -6.2 20.8
17:10 1013 29.91 842 24.86 12.2 53.9 28 -5.6 22
17:15 1013 29.91 842 24.86 11.8 53.3 28 -6.2 20.8
17:20 1013 29.91 842 24.86 11.8 53.2 28 -6.1 21.1
17:25 1013 29.91 842 24.86 11.5 52.7 29 -5.9 21.3
17:30 1013 29.91 842 24.86 11.1 52 30 -5.6 21.9
17:35 1013 29.91 842 24.86 10.5 50.9 32 -5.3 22.5
17:40 1013 29.91 842 24.86 9.9 49.7 33 -5.6 21.9
17:45 1012 29.88 842 24.86 9.5 49.1 35 -5.1 22.7
17:50 1012 29.88 842 24.86 9.1 48.3 36 -5.1 22.8
17:55 1012 29.88 841 24.83 8.7 47.6 39 -4.5 23.9
18:00 1012 29.88 841 24.83 8 46.5 40 -4.7 23.6
18:05 1012 29.88 841 24.83 7.5 45.5 41 -4.7 23.5
18:10 1012 29.88 841 24.83 7.3 45.2 43 -4.6 23.8
18:15 1012 29.88 841 24.83 7.4 45.2 41 -5.1 22.9
18:20 1012 29.88 841 24.83 7.7 45.8 41 -4.7 23.6
18:25 1012 29.88 841 24.83 7.7 45.9 41 -4.7 23.6
18:30 1012 29.88 841 24.83 8 46.5 38 -5.4 22.4
18:35 1012 29.88 841 24.83 9 48.1 34 -6.2 20.9
18:40 1012 29.88 841 24.83 9.6 49.2 33 -6 21.2
18:45 1012 29.88 841 24.83 9.6 49.3 35 -5 23
18:50 1012 29.88 841 24.83 9.1 48.4 35 -5.4 22.2
18:55 1012 29.88 841 24.83 8.9 48.1 37 -5 23
19:00 1012 29.88 841 24.83 8.5 47.4 39 -4.7 23.6
19:05 1012 29.88 841 24.83 8.4 47.1 38 -5 23
19:10 1012 29.88 841 24.83 8.3 47 38 -5 23
19:15 1012 29.88 841 24.83 8 46.5 41 -4.5 23.9
19:20 1012 29.88 841 24.83 7.3 45.2 41 -5 23.1
19:25 1012 29.88 841 24.83 8.3 46.9 35 -6.1 21
19:30 1012 29.88 841 24.83 8.8 47.8 35 -5.9 21.4
19:35 1012 29.88 841 24.83 9 48.2 35 -5.5 22.1
19:40 1012 29.88 841 24.83 8.2 46.8 37 -5.5 22.1
19:45 1012 29.88 841 24.83 8.3 46.9 36 -5.9 21.4
19:50 1012 29.88 841 24.83 8.6 47.6 35 -5.9 21.4
19:55 1012 29.88 841 24.83 8.4 47.2 36 -5.7 21.8
20:00 1012 29.88 841 24.83 8.4 47.2 36 -5.9 21.3
20:05 1012 29.88 841 24.83 8.5 47.3 35 -6 21.3
20:10 1012 29.88 841 24.83 8.4 47.1 36 -5.7 21.7
20:15 1012 29.88 841 24.83 7.9 46.3 37 -5.9 21.4
20:20 1012 29.88 841 24.83 7.9 46.2 37 -6 21.1
20:25 1012 29.88 841 24.83 7.9 46.3 39 -5.3 22.5
20:30 1012 29.88 841 24.83 7.3 45.1 41 -5.2 22.6
20:35 1012 29.88 841 24.83 7.4 45.2 38 -6.1 20.9
20:40 1012 29.88 841 24.83 7.8 46.1 37 -6 21.2
20:45 1011 29.85 841 24.83 7.9 46.2 37 -6 21.3
20:50 1011 29.85 841 24.83 7.9 46.2 36 -6.2 20.8
20:55 1011 29.85 841 24.83 8.2 46.7 35 -6.3 20.7
21:00 1011 29.85 841 24.83 8.3 46.9 35 -6.3 20.7
21:05 1011 29.85 841 24.83 8.3 46.9 36 -6 21.2
21:10 1011 29.85 841 24.83 8 46.4 38 -5.6 21.9
21:15 1011 29.85 841 24.83 8 46.4 38 -5.5 22
21:20 1011 29.85 841 24.83 8 46.3 38 -5.5 22.1
21:25 1011 29.85 841 24.83 7.4 45.3 40 -5.4 22.2
21:30 1012 29.88 841 24.83 7.1 44.7 39 -5.9 21.4
21:35 1012 29.88 841 24.83 8 46.3 35 -6.7 19.9
21:40 1011 29.85 841 24.83 8.7 47.6 34 -6.2 20.8
21:45 1011 29.85 841 24.83 8.9 47.9 33 -6.6 20.1
21:50 1011 29.85 841 24.83 9.3 48.7 32 -6.6 20.1
21:55 1011 29.85 841 24.83 9.4 49 32 -6.3 20.7
22:00 1011 29.85 841 24.83 9.4 48.9 33 -6 21.1
22:05 1011 29.85 840 24.81 9.2 48.5 34 -5.9 21.4
22:10 1011 29.85 840 24.81 8.8 47.9 36 -5.5 22.1
22:15 1011 29.85 840 24.81 8.4 47 37 -5.5 22.1
22:20 1011 29.85 840 24.81 8.2 46.7 37 -5.6 22
22:25 1011 29.85 840 24.81 8.1 46.5 40 -4.7 23.6
22:30 1011 29.85 840 24.81 8.1 46.7 38 -5.4 22.2
22:35 1011 29.85 840 24.81 8 46.4 38 -5.5 22.2
22:40 1011 29.85 840 24.81 8.1 46.6 38 -5.4 22.3
22:45 1011 29.85 840 24.81 8.1 46.7 38 -5.4 22.3
22:50 1011 29.85 840 24.81 8.1 46.6 39 -5.1 22.9
22:55 1011 29.85 840 24.81 7.9 46.1 40 -4.8 23.4
23:00 1011 29.85 840 24.81 7.5 45.4 42 -4.7 23.5
23:05 1011 29.85 840 24.81 7.1 44.8 42 -5 23
23:10 1011 29.85 840 24.81 7.5 45.4 39 -5.5 22.2
23:15 1011 29.85 840 24.81 8 46.5 36 -6 21.2
23:20 1011 29.85 840 24.81 8.6 47.5 35 -5.9 21.3
23:25 1011 29.85 840 24.81 8.8 47.9 34 -6.4 20.5
23:30 1011 29.85 840 24.81 9 48.2 34 -6.1 21.1
23:35 1011 29.85 840 24.81 8.9 48.1 33 -6.3 20.6
23:40 1011 29.85 840 24.81 9.2 48.6 33 -6.3 20.7
23:45 1011 29.85 840 24.81 9.2 48.6 34 -5.9 21.4
23:50 1011 29.85 840 24.81 8.9 48 35 -5.7 21.7
23:55 1011 29.85 840 24.81 8.8 47.9 34 -6.3 20.7
24:00 1011 29.85 840 24.81 8.9 48.1 35 -5.9 21.5